Time;durP1;ratioP1;P1;durP2;ratioP2;P2;SDS_P1;SDS_P2;PMS_P1;PMS_P2;Temp;Humidity;BMP_temperature;BMP_pressure;BME280_temperature;BME280_humidity;BME280_pressure;Samples;Min_cycle;Max_cycle;Signal;HPM_P1;HPM_P2
2021/07/05 00:01:07;;;;;;;7.25;5.15;;;;;;;;;;5009409;28;20049;-61
2021/07/05 00:03:33;;;;;;;6.75;4.85;;;;;;;;;;5001772;28;20131;-61
2021/07/05 00:05:59;;;;;;;7.05;4.38;;;;;;;;;;5002040;28;20124;-61
2021/07/05 00:08:25;;;;;;;6.97;4.57;;;;;;;;;;5002531;28;20043;-63
2021/07/05 00:10:51;;;;;;;8.05;5.10;;;;;;;;;;5018388;28;20049;-60
2021/07/05 00:13:16;;;;;;;8.45;5.25;;;;;;;;;;5002207;28;20165;-60
2021/07/05 00:15:42;;;;;;;8.23;5.13;;;;;;;;;;5004980;28;20650;-61
2021/07/05 00:18:09;;;;;;;7.85;4.80;;;;;;;;;;5002095;28;20044;-62
2021/07/05 00:20:37;;;;;;;8.05;5.47;;;;;;;;;;5002359;28;20042;-61
2021/07/05 00:23:03;;;;;;;7.25;4.65;;;;;;;;;;5002239;28;20498;-59
2021/07/05 00:25:29;;;;;;;8.63;5.38;;;;;;;;;;5001951;28;20048;-62
2021/07/05 00:27:55;;;;;;;8.50;5.55;;;;;;;;;;5002718;28;20045;-61
2021/07/05 00:30:21;;;;;;;8.40;5.15;;;;;;;;;;5002643;28;20053;-61
2021/07/05 00:32:47;;;;;;;8.35;5.32;;;;;;;;;;5005548;28;20030;-61
2021/07/05 00:35:14;;;;;;;8.95;4.80;;;;;;;;;;5004319;28;20041;-60
2021/07/05 00:37:40;;;;;;;10.15;5.88;;;;;;;;;;5002044;28;20038;-62
2021/07/05 00:40:07;;;;;;;8.18;5.43;;;;;;;;;;5001635;28;20045;-62
2021/07/05 00:42:34;;;;;;;9.00;5.57;;;;;;;;;;5002179;28;20123;-61
2021/07/05 00:45:00;;;;;;;6.97;4.22;;;;;;;;;;5004512;28;20495;-63
2021/07/05 00:47:26;;;;;;;8.50;5.78;;;;;;;;;;5002882;28;20188;-63
2021/07/05 00:49:51;;;;;;;7.10;4.10;;;;;;;;;;5005256;28;20034;-64
2021/07/05 00:52:17;;;;;;;10.05;5.93;;;;;;;;;;5002742;28;20049;-63
2021/07/05 00:54:43;;;;;;;10.90;6.97;;;;;;;;;;5001754;28;20530;-62
2021/07/05 00:57:24;;;;;;;8.25;4.53;;;;;;;;;;4999320;28;20052;-62
2021/07/05 00:59:54;;;;;;;10.80;6.82;;;;;;;;;;5000782;28;20049;-62
2021/07/05 01:02:21;;;;;;;11.70;7.13;;;;;;;;;;4999831;28;20215;-60
2021/07/05 01:04:47;;;;;;;12.15;7.43;;;;;;;;;;5002072;28;20095;-60
2021/07/05 01:07:14;;;;;;;11.20;7.10;;;;;;;;;;5001956;28;20132;-61
2021/07/05 01:09:40;;;;;;;5.97;4.10;;;;;;;;;;4999076;28;20065;-61
2021/07/05 01:12:07;;;;;;;7.95;4.80;;;;;;;;;;5000486;28;20033;-62
2021/07/05 01:14:33;;;;;;;8.23;5.25;;;;;;;;;;5001732;28;20490;-61
2021/07/05 01:16:59;;;;;;;7.97;5.40;;;;;;;;;;5007051;28;20483;-63
2021/07/05 01:19:26;;;;;;;9.32;6.07;;;;;;;;;;5005221;28;20061;-62
2021/07/05 01:21:52;;;;;;;7.82;5.22;;;;;;;;;;5006746;28;20123;-62
2021/07/05 01:24:18;;;;;;;9.07;5.22;;;;;;;;;;5005121;28;20042;-62
2021/07/05 01:26:44;;;;;;;8.70;5.95;;;;;;;;;;5005272;28;20531;-62
2021/07/05 01:29:10;;;;;;;8.73;5.13;;;;;;;;;;5005605;28;20045;-60
2021/07/05 01:31:36;;;;;;;6.80;4.68;;;;;;;;;;5004002;28;20073;-62
2021/07/05 01:34:03;;;;;;;10.20;5.63;;;;;;;;;;5004906;28;20582;-62
2021/07/05 01:36:28;;;;;;;8.18;5.32;;;;;;;;;;5003301;28;20609;-61
2021/07/05 01:38:54;;;;;;;7.43;4.70;;;;;;;;;;5003934;28;20045;-62
2021/07/05 01:41:20;;;;;;;8.00;5.15;;;;;;;;;;5003235;28;20137;-60
2021/07/05 01:43:47;;;;;;;7.80;4.35;;;;;;;;;;5003500;28;21740;-60
2021/07/05 01:46:13;;;;;;;6.97;4.07;;;;;;;;;;5003028;28;20092;-61
2021/07/05 01:48:39;;;;;;;8.35;4.38;;;;;;;;;;5003743;28;20041;-61
2021/07/05 01:51:05;;;;;;;7.47;4.72;;;;;;;;;;5004275;28;20658;-61
2021/07/05 01:53:31;;;;;;;6.07;3.53;;;;;;;;;;5003797;28;20040;-61
2021/07/05 01:55:57;;;;;;;5.80;3.88;;;;;;;;;;5018829;28;20053;-61
2021/07/05 01:58:23;;;;;;;8.43;4.63;;;;;;;;;;5004684;28;20092;-60
2021/07/05 02:00:50;;;;;;;7.65;4.72;;;;;;;;;;5003869;28;20068;-60
2021/07/05 02:03:17;;;;;;;7.22;4.47;;;;;;;;;;5003543;28;20133;-61
2021/07/05 02:05:44;;;;;;;6.38;3.17;;;;;;;;;;5003307;28;20064;-60
2021/07/05 02:08:11;;;;;;;7.00;4.70;;;;;;;;;;5003308;28;20038;-60
2021/07/05 02:10:37;;;;;;;8.35;4.15;;;;;;;;;;5003340;28;20033;-60
2021/07/05 02:13:23;;;;;;;8.25;4.82;;;;;;;;;;5002400;28;20727;-60
2021/07/05 02:15:50;;;;;;;8.27;5.03;;;;;;;;;;5002412;28;20044;-61
2021/07/05 02:18:16;;;;;;;9.80;6.03;;;;;;;;;;5004172;28;20564;-61
2021/07/05 02:20:42;;;;;;;7.85;4.82;;;;;;;;;;5002824;28;20347;-61
2021/07/05 02:23:09;;;;;;;9.27;5.90;;;;;;;;;;5003615;28;20108;-61
2021/07/05 02:25:35;;;;;;;9.30;5.75;;;;;;;;;;5001688;28;20093;-61
2021/07/05 02:28:08;;;;;;;10.55;5.75;;;;;;;;;;5002731;28;20521;-61
2021/07/05 02:30:34;;;;;;;7.35;4.40;;;;;;;;;;5002489;28;20045;-61
2021/07/05 02:33:00;;;;;;;6.63;4.43;;;;;;;;;;5003519;28;20382;-59
2021/07/05 02:35:28;;;;;;;7.00;4.72;;;;;;;;;;5001071;28;20044;-61
2021/07/05 02:37:54;;;;;;;7.50;4.32;;;;;;;;;;5001490;28;20522;-61
2021/07/05 02:40:22;;;;;;;8.43;4.50;;;;;;;;;;5001011;28;20099;-61
2021/07/05 02:42:49;;;;;;;6.95;4.07;;;;;;;;;;5001857;28;20144;-61
2021/07/05 02:45:21;;;;;;;6.97;4.25;;;;;;;;;;5002732;28;20041;-61
2021/07/05 02:47:47;;;;;;;6.82;4.10;;;;;;;;;;5001353;28;20536;-61
2021/07/05 02:50:13;;;;;;;6.93;4.47;;;;;;;;;;5003464;28;20262;-59
2021/07/05 02:52:39;;;;;;;6.43;4.10;;;;;;;;;;5003550;28;20045;-59
2021/07/05 02:55:07;;;;;;;6.25;4.05;;;;;;;;;;5003658;28;20049;-60
2021/07/05 02:57:33;;;;;;;8.30;3.70;;;;;;;;;;5001583;28;20332;-61
2021/07/05 03:00:07;;;;;;;8.27;4.78;;;;;;;;;;5003740;28;20122;-62
2021/07/05 03:02:33;;;;;;;6.78;4.18;;;;;;;;;;5002020;28;20057;-62
2021/07/05 03:04:59;;;;;;;6.47;4.20;;;;;;;;;;5003305;28;20030;-62
2021/07/05 03:07:24;;;;;;;7.30;4.57;;;;;;;;;;5001088;28;21112;-62
2021/07/05 03:09:50;;;;;;;7.35;4.95;;;;;;;;;;5002024;28;20348;-62
2021/07/05 03:12:16;;;;;;;7.38;4.18;;;;;;;;;;5002448;28;20037;-62
2021/07/05 03:14:42;;;;;;;7.95;5.28;;;;;;;;;;5001211;28;20045;-62
2021/07/05 03:17:08;;;;;;;9.27;5.70;;;;;;;;;;5027419;28;20041;-64
2021/07/05 03:19:33;;;;;;;8.40;5.60;;;;;;;;;;5013668;28;20171;-62
2021/07/05 03:21:59;;;;;;;9.43;5.70;;;;;;;;;;5012444;28;20040;-62
2021/07/05 03:24:25;;;;;;;8.60;5.80;;;;;;;;;;5011447;28;20123;-62
2021/07/05 03:26:51;;;;;;;11.15;7.40;;;;;;;;;;5009756;28;20042;-62
2021/07/05 03:29:17;;;;;;;9.57;6.15;;;;;;;;;;5013973;28;20076;-61
2021/07/05 03:31:42;;;;;;;9.95;6.63;;;;;;;;;;5010936;28;20042;-61
2021/07/05 03:34:09;;;;;;;10.55;6.80;;;;;;;;;;5011757;28;20052;-61
2021/07/05 03:36:35;;;;;;;10.25;6.60;;;;;;;;;;5012005;28;20493;-62
2021/07/05 03:39:00;;;;;;;11.65;7.50;;;;;;;;;;5011736;28;20044;-62
2021/07/05 03:41:26;;;;;;;9.70;5.47;;;;;;;;;;5010604;28;20487;-61
2021/07/05 03:43:52;;;;;;;6.57;4.20;;;;;;;;;;5014082;28;20069;-61
2021/07/05 03:46:18;;;;;;;6.13;3.35;;;;;;;;;;5011669;28;20041;-62
2021/07/05 03:48:43;;;;;;;5.20;2.42;;;;;;;;;;5027119;28;20076;-62
2021/07/05 03:51:09;;;;;;;4.50;2.38;;;;;;;;;;5010648;28;20049;-61
2021/07/05 03:53:35;;;;;;;4.60;2.15;;;;;;;;;;5010530;28;20056;-61
2021/07/05 03:56:02;;;;;;;3.42;1.58;;;;;;;;;;5010442;28;20046;-60
2021/07/05 03:58:28;;;;;;;3.00;1.25;;;;;;;;;;5011456;28;20044;-58
2021/07/05 04:00:54;;;;;;;3.47;1.25;;;;;;;;;;5010409;28;20037;-60
2021/07/05 04:03:20;;;;;;;3.03;1.10;;;;;;;;;;5011351;28;20046;-60
2021/07/05 04:05:47;;;;;;;2.78;1.02;;;;;;;;;;5011411;28;20403;-60
2021/07/05 04:08:14;;;;;;;2.83;0.98;;;;;;;;;;5013277;28;20546;-61
2021/07/05 04:10:40;;;;;;;3.08;1.08;;;;;;;;;;5012258;28;20042;-62
2021/07/05 04:13:07;;;;;;;4.13;1.35;;;;;;;;;;5011285;28;20042;-62
2021/07/05 04:15:35;;;;;;;3.35;1.30;;;;;;;;;;5010222;28;20046;-61
2021/07/05 04:18:01;;;;;;;4.38;1.85;;;;;;;;;;5012610;28;20041;-58
2021/07/05 04:20:27;;;;;;;3.95;1.45;;;;;;;;;;5010652;28;20569;-59
2021/07/05 04:22:53;;;;;;;3.65;1.42;;;;;;;;;;5010434;28;20057;-61
2021/07/05 04:25:19;;;;;;;3.50;1.45;;;;;;;;;;5012233;28;20128;-60
2021/07/05 04:27:46;;;;;;;6.07;1.50;;;;;;;;;;5010242;28;20181;-61
2021/07/05 04:30:12;;;;;;;2.97;1.20;;;;;;;;;;5010559;28;20751;-61
2021/07/05 04:32:39;;;;;;;5.28;1.48;;;;;;;;;;5010084;28;20124;-61
2021/07/05 04:35:12;;;;;;;3.17;1.10;;;;;;;;;;5012127;28;20037;-61
2021/07/05 04:37:39;;;;;;;3.38;1.30;;;;;;;;;;5010526;28;20886;-58
2021/07/05 04:40:14;;;;;;;3.00;1.10;;;;;;;;;;5009986;28;20053;-60
2021/07/05 04:42:41;;;;;;;3.47;1.30;;;;;;;;;;5009090;28;20050;-61
2021/07/05 04:45:07;;;;;;;4.10;1.02;;;;;;;;;;5011400;28;20033;-61
2021/07/05 04:47:33;;;;;;;4.68;1.30;;;;;;;;;;5009086;28;20049;-61
2021/07/05 04:49:59;;;;;;;3.85;1.40;;;;;;;;;;5011940;28;20049;-61
2021/07/05 04:52:25;;;;;;;2.75;1.08;;;;;;;;;;5014732;28;20602;-61
2021/07/05 04:54:51;;;;;;;3.53;1.20;;;;;;;;;;5015421;28;20057;-60
2021/07/05 04:57:17;;;;;;;4.43;1.60;;;;;;;;;;5016740;28;20041;-63
2021/07/05 04:59:43;;;;;;;4.43;1.60;;;;;;;;;;5016863;28;20044;-61
2021/07/05 05:02:09;;;;;;;3.55;1.38;;;;;;;;;;5014121;28;20171;-61
2021/07/05 05:04:35;;;;;;;3.05;1.30;;;;;;;;;;5013554;28;20056;-61
2021/07/05 05:07:01;;;;;;;2.88;1.30;;;;;;;;;;5015338;28;20037;-60
2021/07/05 05:09:26;;;;;;;3.45;1.45;;;;;;;;;;5013241;28;20444;-60
2021/07/05 05:11:52;;;;;;;4.15;1.67;;;;;;;;;;5013056;28;20039;-60
2021/07/05 05:14:19;;;;;;;4.65;1.60;;;;;;;;;;5013753;28;20044;-61
2021/07/05 05:16:46;;;;;;;5.00;1.60;;;;;;;;;;5013256;28;20482;-62
2021/07/05 05:19:12;;;;;;;3.30;1.40;;;;;;;;;;5012473;28;20662;-61
2021/07/05 05:21:37;;;;;;;4.18;1.90;;;;;;;;;;5012903;28;20041;-61
2021/07/05 05:24:04;;;;;;;6.72;1.92;;;;;;;;;;5014023;28;20049;-61
2021/07/05 05:26:30;;;;;;;3.97;1.90;;;;;;;;;;5012179;28;20045;-60
2021/07/05 05:28:56;;;;;;;5.78;2.17;;;;;;;;;;5013792;28;20041;-61
2021/07/05 05:31:22;;;;;;;6.63;2.90;;;;;;;;;;5011777;28;20038;-60
2021/07/05 05:33:48;;;;;;;8.05;4.85;;;;;;;;;;5014216;28;20088;-60
2021/07/05 05:36:14;;;;;;;7.93;4.43;;;;;;;;;;5015370;28;20033;-61
2021/07/05 05:38:45;;;;;;;9.55;5.32;;;;;;;;;;5012999;28;20037;-59
2021/07/05 05:41:12;;;;;;;10.98;6.05;;;;;;;;;;5012575;28;20264;-61
2021/07/05 05:43:37;;;;;;;9.10;5.68;;;;;;;;;;5013096;28;20045;-61
2021/07/05 05:46:03;;;;;;;11.63;5.88;;;;;;;;;;5013065;28;20055;-61
2021/07/05 05:48:30;;;;;;;10.88;5.97;;;;;;;;;;5013251;28;20605;-61
2021/07/05 05:50:56;;;;;;;13.05;6.53;;;;;;;;;;5028332;28;20117;-60
2021/07/05 05:53:22;;;;;;;13.77;7.25;;;;;;;;;;5012730;28;20514;-60
2021/07/05 05:55:48;;;;;;;11.32;7.10;;;;;;;;;;5014304;28;20051;-59
2021/07/05 05:58:14;;;;;;;12.20;6.68;;;;;;;;;;5015135;28;20491;-60
2021/07/05 06:00:40;;;;;;;10.23;6.20;;;;;;;;;;5012843;28;20086;-59
2021/07/05 06:03:06;;;;;;;10.80;6.03;;;;;;;;;;5014947;28;20050;-58
2021/07/05 06:05:32;;;;;;;9.07;5.32;;;;;;;;;;5012320;28;20041;-58
2021/07/05 06:07:58;;;;;;;10.77;5.65;;;;;;;;;;5009188;28;20064;-60
2021/07/05 06:10:24;;;;;;;8.55;4.93;;;;;;;;;;5012022;28;20048;-59
2021/07/05 06:12:50;;;;;;;6.35;2.97;;;;;;;;;;5013439;28;20033;-58
2021/07/05 06:15:18;;;;;;;6.00;2.40;;;;;;;;;;5015308;28;20545;-59
2021/07/05 06:17:45;;;;;;;6.18;1.98;;;;;;;;;;5012053;28;20631;-60
2021/07/05 06:20:12;;;;;;;5.72;2.25;;;;;;;;;;5013438;28;20046;-61
2021/07/05 06:23:16;;;;;;;5.88;2.13;;;;;;;;;;5013804;28;20570;-61
2021/07/05 06:25:29;;;;;;;4.30;2.20;;;;;;;;;;5011224;28;20053;-61
2021/07/05 06:27:55;;;;;;;4.28;2.10;;;;;;;;;;5015686;28;20048;-62
2021/07/05 06:30:21;;;;;;;4.25;2.00;;;;;;;;;;5011487;28;20041;-57
2021/07/05 06:32:47;;;;;;;5.50;2.63;;;;;;;;;;5013990;28;20044;-60
2021/07/05 06:35:13;;;;;;;6.03;2.85;;;;;;;;;;5014828;28;20407;-59
2021/07/05 06:37:39;;;;;;;5.82;2.38;;;;;;;;;;5009455;28;20521;-59
2021/07/05 06:40:05;;;;;;;8.18;2.47;;;;;;;;;;5012483;28;20049;-59
2021/07/05 06:42:32;;;;;;;6.53;3.05;;;;;;;;;;5012011;28;20524;-57
2021/07/05 06:44:57;;;;;;;5.72;2.95;;;;;;;;;;5012576;28;20042;-58
2021/07/05 06:47:23;;;;;;;4.80;2.47;;;;;;;;;;5012982;28;20548;-58
2021/07/05 06:49:49;;;;;;;5.28;2.75;;;;;;;;;;5013298;28;20131;-60
2021/07/05 06:52:15;;;;;;;6.40;2.72;;;;;;;;;;5010408;28;20456;-59
2021/07/05 06:54:41;;;;;;;6.05;2.92;;;;;;;;;;5010548;28;20130;-60
2021/07/05 06:57:28;;;;;;;5.35;2.90;;;;;;;;;;5011454;28;20046;-55
2021/07/05 06:59:53;;;;;;;5.28;2.70;;;;;;;;;;5010821;28;20033;-57
2021/07/05 07:02:18;;;;;;;6.15;3.05;;;;;;;;;;5009517;28;20040;-57
2021/07/05 07:04:44;;;;;;;7.45;3.25;;;;;;;;;;5010048;28;20055;-56
2021/07/05 07:07:10;;;;;;;5.40;2.55;;;;;;;;;;5010333;28;20038;-57
2021/07/05 07:09:36;;;;;;;6.60;3.05;;;;;;;;;;5011097;28;20041;-57
2021/07/05 07:12:02;;;;;;;6.38;2.78;;;;;;;;;;5010550;28;20038;-57
2021/07/05 07:14:27;;;;;;;5.75;2.63;;;;;;;;;;5010845;28;20057;-57
2021/07/05 07:17:02;;;;;;;5.93;3.22;;;;;;;;;;5010979;28;20867;-57
2021/07/05 07:19:28;;;;;;;6.25;3.20;;;;;;;;;;5011665;28;20050;-58
2021/07/05 07:21:54;;;;;;;7.75;4.10;;;;;;;;;;5010272;28;20056;-57
2021/07/05 07:24:20;;;;;;;8.38;5.05;;;;;;;;;;5009972;28;20053;-59
2021/07/05 07:26:46;;;;;;;9.57;5.18;;;;;;;;;;5012605;28;20029;-59
2021/07/05 07:29:12;;;;;;;10.52;6.05;;;;;;;;;;5011932;28;20065;-56
2021/07/05 07:31:39;;;;;;;11.80;7.20;;;;;;;;;;5011532;28;21414;-59
2021/07/05 07:34:05;;;;;;;12.88;7.28;;;;;;;;;;5011497;28;20060;-56
2021/07/05 07:36:31;;;;;;;15.77;8.38;;;;;;;;;;5010130;28;20068;-59
2021/07/05 07:39:05;;;;;;;16.65;8.45;;;;;;;;;;5011072;28;20573;-58
2021/07/05 07:41:33;;;;;;;15.13;8.50;;;;;;;;;;5009031;28;20056;-58
2021/07/05 07:43:59;;;;;;;18.60;9.73;;;;;;;;;;5010228;28;20053;-59
2021/07/05 07:46:25;;;;;;;17.85;9.07;;;;;;;;;;5010403;28;20053;-58
2021/07/05 07:48:51;;;;;;;18.73;9.93;;;;;;;;;;5013438;28;20118;-59
2021/07/05 07:51:17;;;;;;;19.60;10.50;;;;;;;;;;5008871;28;20044;-55
2021/07/05 07:53:43;;;;;;;16.05;8.85;;;;;;;;;;5005688;28;20041;-58
2021/07/05 07:56:09;;;;;;;15.20;7.32;;;;;;;;;;5009725;28;20041;-55
2021/07/05 07:58:35;;;;;;;15.32;6.93;;;;;;;;;;5011102;28;20034;-59
2021/07/05 08:01:00;;;;;;;11.15;5.80;;;;;;;;;;5010461;28;20072;-58
2021/07/05 08:03:26;;;;;;;8.98;5.30;;;;;;;;;;5010385;28;20814;-59
2021/07/05 08:05:54;;;;;;;10.50;5.32;;;;;;;;;;5009977;28;20167;-58
2021/07/05 08:08:21;;;;;;;8.60;4.88;;;;;;;;;;5011113;28;20501;-58
2021/07/05 08:10:47;;;;;;;9.35;4.50;;;;;;;;;;5008977;28;20037;-61
2021/07/05 08:13:13;;;;;;;9.23;3.95;;;;;;;;;;5011689;28;20061;-57
2021/07/05 08:15:39;;;;;;;6.82;3.30;;;;;;;;;;5009389;28;20038;-60
2021/07/05 08:18:04;;;;;;;6.78;3.80;;;;;;;;;;5010771;28;20033;-60
2021/07/05 08:20:30;;;;;;;7.63;4.07;;;;;;;;;;5008264;28;20060;-59
2021/07/05 08:22:57;;;;;;;7.68;3.65;;;;;;;;;;5009785;28;20045;-58
2021/07/05 08:25:23;;;;;;;6.53;3.35;;;;;;;;;;5007724;28;20120;-57
2021/07/05 08:27:50;;;;;;;7.85;3.70;;;;;;;;;;5009830;28;20034;-56
2021/07/05 08:30:16;;;;;;;5.90;3.13;;;;;;;;;;5008499;28;20073;-58
2021/07/05 08:32:42;;;;;;;13.32;3.40;;;;;;;;;;5008110;28;20517;-58
2021/07/05 08:35:08;;;;;;;6.30;3.47;;;;;;;;;;5009901;28;20038;-57
2021/07/05 08:37:34;;;;;;;8.45;3.55;;;;;;;;;;5009590;28;21054;-60
2021/07/05 08:40:00;;;;;;;6.13;3.13;;;;;;;;;;5009758;28;20059;-59
2021/07/05 08:42:27;;;;;;;7.90;2.97;;;;;;;;;;5007761;28;20045;-57
2021/07/05 08:44:53;;;;;;;6.75;3.40;;;;;;;;;;5008352;28;20051;-58
2021/07/05 08:47:19;;;;;;;7.70;3.97;;;;;;;;;;5009843;28;20190;-59
2021/07/05 08:49:46;;;;;;;6.32;3.65;;;;;;;;;;5009050;28;20116;-58
2021/07/05 08:52:11;;;;;;;6.45;3.15;;;;;;;;;;5009800;28;20702;-56
2021/07/05 08:54:37;;;;;;;5.78;2.92;;;;;;;;;;5010653;28;20124;-58
2021/07/05 08:57:04;;;;;;;7.15;3.70;;;;;;;;;;5011057;28;20033;-57
2021/07/05 08:59:31;;;;;;;7.22;3.40;;;;;;;;;;5010454;28;20041;-59
2021/07/05 09:01:57;;;;;;;9.27;3.40;;;;;;;;;;5010431;28;20257;-59
2021/07/05 09:04:23;;;;;;;10.60;3.05;;;;;;;;;;5010142;28;20041;-59
2021/07/05 09:07:15;;;;;;;7.05;3.25;;;;;;;;;;5011017;28;20127;-58
2021/07/05 09:09:57;;;;;;;6.53;2.63;;;;;;;;;;5008060;28;20164;-61
2021/07/05 09:12:23;;;;;;;6.07;3.20;;;;;;;;;;5009272;28;20038;-59
2021/07/05 09:15:02;;;;;;;6.78;2.88;;;;;;;;;;5013965;28;20030;-58
2021/07/05 09:17:32;;;;;;;5.65;2.90;;;;;;;;;;5006927;28;20042;-59
2021/07/05 09:19:58;;;;;;;5.63;3.38;;;;;;;;;;5009962;28;20033;-58
2021/07/05 09:22:23;;;;;;;6.22;3.30;;;;;;;;;;5010123;28;20045;-59
2021/07/05 09:24:51;;;;;;;10.80;3.72;;;;;;;;;;5009517;28;20048;-60
2021/07/05 09:27:25;;;;;;;6.35;3.40;;;;;;;;;;5010573;28;20041;-58
2021/07/05 09:29:50;;;;;;;7.07;3.15;;;;;;;;;;5011346;28;20121;-60
2021/07/05 09:32:27;;;;;;;7.85;3.75;;;;;;;;;;5009809;28;20538;-59
2021/07/05 09:34:53;;;;;;;6.13;3.03;;;;;;;;;;5008888;28;20046;-59
2021/07/05 09:37:30;;;;;;;6.90;3.55;;;;;;;;;;5014352;28;20119;-59
2021/07/05 09:40:02;;;;;;;6.47;3.88;;;;;;;;;;5012369;28;20060;-60
2021/07/05 09:42:29;;;;;;;9.95;4.03;;;;;;;;;;5013178;28;20038;-60
2021/07/05 09:44:56;;;;;;;9.35;4.00;;;;;;;;;;5013565;28;20069;-59
2021/07/05 09:47:25;;;;;;;8.25;4.50;;;;;;;;;;5013088;28;20041;-60
2021/07/05 09:49:51;;;;;;;11.48;4.78;;;;;;;;;;5015303;28;20047;-59
2021/07/05 09:52:23;;;;;;;10.20;5.22;;;;;;;;;;5013760;28;20042;-59
2021/07/05 09:54:50;;;;;;;9.82;5.07;;;;;;;;;;5012845;28;20056;-57
2021/07/05 09:57:26;;;;;;;11.73;5.90;;;;;;;;;;5012554;28;20096;-58
2021/07/05 10:00:12;;;;;;;10.02;5.22;;;;;;;;;;5010082;28;20049;-57
2021/07/05 10:02:52;;;;;;;14.18;6.90;;;;;;;;;;5013935;28;20549;-60
2021/07/05 10:05:18;;;;;;;13.98;6.47;;;;;;;;;;5009094;28;20064;-60
2021/07/05 10:07:56;;;;;;;15.70;7.50;;;;;;;;;;5013683;28;20110;-58
2021/07/05 10:10:22;;;;;;;14.25;7.95;;;;;;;;;;5012113;28;21929;-58
2021/07/05 10:12:55;;;;;;;19.63;9.00;;;;;;;;;;5012174;28;20045;-57
2021/07/05 10:15:22;;;;;;;17.58;7.28;;;;;;;;;;5011595;28;20628;-59
2021/07/05 10:17:50;;;;;;;14.85;8.05;;;;;;;;;;5010997;28;20052;-59
2021/07/05 10:20:20;;;;;;;15.75;8.30;;;;;;;;;;5011416;28;20046;-59
2021/07/05 10:22:47;;;;;;;15.70;7.57;;;;;;;;;;5011501;28;20056;-58
2021/07/05 10:25:14;;;;;;;15.35;7.72;;;;;;;;;;5012339;28;20171;-59
2021/07/05 10:27:40;;;;;;;16.17;8.48;;;;;;;;;;5011857;28;20121;-60
2021/07/05 10:30:08;;;;;;;14.80;8.20;;;;;;;;;;5012427;28;20042;-61
2021/07/05 10:32:34;;;;;;;15.48;8.90;;;;;;;;;;5011198;28;20973;-59
2021/07/05 10:35:00;;;;;;;14.50;8.30;;;;;;;;;;5012851;28;20037;-60
2021/07/05 10:37:37;;;;;;;16.92;9.00;;;;;;;;;;5012515;28;20518;-58
2021/07/05 10:40:05;;;;;;;15.93;8.88;;;;;;;;;;5012543;28;21035;-59
2021/07/05 10:42:33;;;;;;;15.23;9.18;;;;;;;;;;5011273;28;20034;-57
2021/07/05 10:44:59;;;;;;;16.88;9.27;;;;;;;;;;5010524;28;20046;-59
2021/07/05 10:47:43;;;;;;;16.98;8.75;;;;;;;;;;5012855;28;20430;-59
2021/07/05 10:50:29;;;;;;;14.27;8.40;;;;;;;;;;5013689;28;20064;-60
2021/07/05 10:52:55;;;;;;;16.42;8.65;;;;;;;;;;5010251;28;20494;-59
2021/07/05 10:55:36;;;;;;;16.10;8.65;;;;;;;;;;5012205;28;20041;-59
2021/07/05 10:58:02;;;;;;;20.60;9.40;;;;;;;;;;5011383;28;20068;-59
2021/07/05 11:00:45;;;;;;;14.43;8.00;;;;;;;;;;5009935;28;20381;-58
2021/07/05 11:03:11;;;;;;;13.95;7.35;;;;;;;;;;5011627;28;20049;-60
2021/07/05 11:05:47;;;;;;;12.18;6.93;;;;;;;;;;5011326;28;20040;-58
2021/07/05 11:08:16;;;;;;;15.65;7.35;;;;;;;;;;5010485;28;20050;-57
2021/07/05 11:10:43;;;;;;;15.45;7.35;;;;;;;;;;5014258;28;20490;-59
2021/07/05 11:13:09;;;;;;;11.25;6.18;;;;;;;;;;5013458;28;20053;-59
2021/07/05 11:15:48;;;;;;;10.10;6.10;;;;;;;;;;5009782;28;20037;-59
2021/07/05 11:18:32;;;;;;;12.63;7.05;;;;;;;;;;5011439;28;20069;-59
2021/07/05 11:20:58;;;;;;;13.40;7.75;;;;;;;;;;5010803;28;20048;-59
2021/07/05 11:23:24;;;;;;;15.93;8.55;;;;;;;;;;5009458;28;20049;-58
2021/07/05 11:26:09;;;;;;;20.48;10.95;;;;;;;;;;5010216;28;20045;-59
2021/07/05 11:28:35;;;;;;;21.17;9.82;;;;;;;;;;5009999;28;20038;-59
2021/07/05 11:31:17;;;;;;;19.05;9.70;;;;;;;;;;5011764;28;20363;-58
2021/07/05 11:33:43;;;;;;;18.35;10.13;;;;;;;;;;5011335;28;20061;-59
2021/07/05 11:36:18;;;;;;;17.25;10.60;;;;;;;;;;5010401;28;20042;-59
2021/07/05 11:38:44;;;;;;;21.38;10.68;;;;;;;;;;5011282;28;20037;-59
2021/07/05 11:41:10;;;;;;;16.45;9.10;;;;;;;;;;5011358;28;20357;-58
2021/07/05 11:44:26;;;;;;;19.92;10.25;;;;;;;;;;5009349;28;20054;-59
2021/07/05 11:46:47;;;;;;;18.00;9.63;;;;;;;;;;5008530;28;20545;-60
2021/07/05 11:49:21;;;;;;;19.52;10.48;;;;;;;;;;5011436;28;20088;-59
2021/07/05 11:51:49;;;;;;;17.77;9.75;;;;;;;;;;5009266;28;20132;-60
2021/07/05 11:54:16;;;;;;;17.98;9.52;;;;;;;;;;5012025;28;20037;-59
2021/07/05 11:56:43;;;;;;;17.63;9.88;;;;;;;;;;5009976;28;20029;-59
2021/07/05 11:59:19;;;;;;;19.27;10.35;;;;;;;;;;5009726;28;20041;-59
2021/07/05 12:01:45;;;;;;;16.23;9.05;;;;;;;;;;5008818;28;20033;-59
2021/07/05 12:04:11;;;;;;;18.90;9.40;;;;;;;;;;5011674;28;20072;-60
2021/07/05 12:06:37;;;;;;;17.23;10.10;;;;;;;;;;5009296;28;20694;-59
2021/07/05 12:09:05;;;;;;;17.95;9.77;;;;;;;;;;5010645;28;20108;-59
2021/07/05 12:11:33;;;;;;;17.95;9.93;;;;;;;;;;5009223;28;20931;-60
2021/07/05 12:14:10;;;;;;;20.80;11.20;;;;;;;;;;5025227;28;20045;-60
2021/07/05 12:16:36;;;;;;;17.23;9.85;;;;;;;;;;5010547;28;20422;-60
2021/07/05 12:19:03;;;;;;;20.70;11.18;;;;;;;;;;5013801;28;20136;-61
2021/07/05 12:21:41;;;;;;;20.27;10.40;;;;;;;;;;5010196;28;20037;-61
2021/07/05 12:24:27;;;;;;;19.95;10.68;;;;;;;;;;5009503;28;20061;-62
2021/07/05 12:26:54;;;;;;;20.75;11.35;;;;;;;;;;5010169;28;20037;-62
2021/07/05 12:29:24;;;;;;;19.55;9.98;;;;;;;;;;5010285;28;20163;-61
2021/07/05 12:32:02;;;;;;;15.77;8.60;;;;;;;;;;5007396;28;20046;-61
2021/07/05 12:34:38;;;;;;;17.00;8.15;;;;;;;;;;5009133;28;20045;-62
2021/07/05 12:37:04;;;;;;;14.73;7.30;;;;;;;;;;5010617;28;20981;-61
2021/07/05 12:39:30;;;;;;;12.57;6.85;;;;;;;;;;5009152;28;20052;-61
2021/07/05 12:41:56;;;;;;;11.48;6.43;;;;;;;;;;5010903;28;20064;-61
2021/07/05 12:44:22;;;;;;;12.80;6.40;;;;;;;;;;5009450;28;20814;-61
2021/07/05 12:46:48;;;;;;;11.43;6.40;;;;;;;;;;5012326;28;20049;-61
2021/07/05 12:49:14;;;;;;;7.70;4.38;;;;;;;;;;5009799;28;20117;-60
2021/07/05 12:51:41;;;;;;;7.72;3.97;;;;;;;;;;5010500;28;20045;-61
2021/07/05 12:54:18;;;;;;;7.00;4.22;;;;;;;;;;5009817;28;20038;-60
2021/07/05 12:56:44;;;;;;;8.02;4.35;;;;;;;;;;5008536;28;20510;-60
2021/07/05 12:59:20;;;;;;;7.82;4.43;;;;;;;;;;5009324;28;20036;-60
2021/07/05 13:01:46;;;;;;;8.27;4.63;;;;;;;;;;5010582;28;20038;-61
2021/07/05 13:04:13;;;;;;;7.60;3.80;;;;;;;;;;5010423;28;20317;-61
2021/07/05 13:06:40;;;;;;;8.98;3.95;;;;;;;;;;5008297;28;20048;-61
2021/07/05 13:09:09;;;;;;;8.15;4.20;;;;;;;;;;5010195;28;20041;-62
2021/07/05 13:11:38;;;;;;;8.68;3.80;;;;;;;;;;5013606;28;20081;-61
2021/07/05 13:14:06;;;;;;;10.45;4.10;;;;;;;;;;5013064;28;20115;-59
2021/07/05 13:16:32;;;;;;;10.30;3.55;;;;;;;;;;5012436;28;20052;-62
2021/07/05 13:19:07;;;;;;;7.30;2.97;;;;;;;;;;5014495;28;20034;-62
2021/07/05 13:21:35;;;;;;;5.82;2.80;;;;;;;;;;5012473;28;20668;-61
2021/07/05 13:24:22;;;;;;;5.50;2.53;;;;;;;;;;5012293;28;20045;-62
2021/07/05 13:26:49;;;;;;;6.00;3.30;;;;;;;;;;5014094;28;20050;-62
2021/07/05 13:29:18;;;;;;;9.95;4.57;;;;;;;;;;5012505;28;20489;-61
2021/07/05 13:31:44;;;;;;;7.57;4.00;;;;;;;;;;5012688;28;20041;-62
2021/07/05 13:34:28;;;;;;;8.82;4.35;;;;;;;;;;5015997;28;20045;-61
2021/07/05 13:36:55;;;;;;;7.32;3.67;;;;;;;;;;5013066;28;20188;-61
2021/07/05 13:39:20;;;;;;;7.85;3.97;;;;;;;;;;5009821;28;20071;-60
2021/07/05 13:41:47;;;;;;;10.02;3.67;;;;;;;;;;5012986;28;20124;-60
2021/07/05 13:44:24;;;;;;;6.13;3.08;;;;;;;;;;5013416;28;20060;-59
2021/07/05 13:47:09;;;;;;;7.43;3.33;;;;;;;;;;5012278;28;20061;-60
2021/07/05 13:49:35;;;;;;;7.20;3.08;;;;;;;;;;5013374;28;20046;-57
2021/07/05 13:52:01;;;;;;;8.52;3.50;;;;;;;;;;5013072;28;20153;-58
2021/07/05 13:54:28;;;;;;;7.85;4.00;;;;;;;;;;5012891;28;20057;-59
2021/07/05 13:57:07;;;;;;;7.90;3.95;;;;;;;;;;5011622;28;20838;-60
2021/07/05 13:59:33;;;;;;;8.27;3.35;;;;;;;;;;5013708;28;20045;-59
2021/07/05 14:01:58;;;;;;;8.15;3.58;;;;;;;;;;5011171;28;20037;-60
2021/07/05 14:04:24;;;;;;;6.78;3.40;;;;;;;;;;5012193;28;20649;-59
2021/07/05 14:06:50;;;;;;;5.53;2.80;;;;;;;;;;5012787;28;20052;-58
2021/07/05 14:09:16;;;;;;;6.80;3.13;;;;;;;;;;5013119;28;20745;-59
2021/07/05 14:11:42;;;;;;;6.82;3.10;;;;;;;;;;5011617;28;20042;-58
2021/07/05 14:14:07;;;;;;;5.75;2.80;;;;;;;;;;5013891;28;20092;-58
2021/07/05 14:16:35;;;;;;;7.47;2.90;;;;;;;;;;5012356;28;20041;-59
2021/07/05 14:19:03;;;;;;;7.07;3.45;;;;;;;;;;5011169;28;20046;-58
2021/07/05 14:21:30;;;;;;;7.53;3.65;;;;;;;;;;5014516;28;20036;-58
2021/07/05 14:23:56;;;;;;;10.35;3.90;;;;;;;;;;5011523;28;20056;-59
2021/07/05 14:26:21;;;;;;;6.93;3.55;;;;;;;;;;5013203;28;20037;-59
2021/07/05 14:28:47;;;;;;;8.00;3.53;;;;;;;;;;5011474;28;20041;-57
2021/07/05 14:31:13;;;;;;;8.23;3.53;;;;;;;;;;5010962;28;20092;-59
2021/07/05 14:33:39;;;;;;;6.28;3.05;;;;;;;;;;5010641;28;20054;-59
2021/07/05 14:36:05;;;;;;;6.30;2.88;;;;;;;;;;5013057;28;20450;-58
2021/07/05 14:38:31;;;;;;;5.32;2.80;;;;;;;;;;5011823;28;20497;-60
2021/07/05 14:40:57;;;;;;;7.60;3.13;;;;;;;;;;5013295;28;20206;-61
2021/07/05 14:43:23;;;;;;;7.13;3.17;;;;;;;;;;5013198;28;20049;-61